createdAt,value
2022-08-29T18:14:57.220Z,4.05
2022-08-29T18:17:23.760Z,3.97
2022-08-29T18:19:50.294Z,3.88
2022-08-29T18:22:16.784Z,3.17
2022-08-29T18:24:43.317Z,4.32
2022-08-29T18:27:09.848Z,2.80
2022-08-29T18:29:36.339Z,3.10
2022-08-29T18:32:03.250Z,3.30
2022-08-29T18:34:29.811Z,3.22
2022-08-29T18:36:56.721Z,3.50
2022-08-29T18:39:23.817Z,3.60
2022-08-29T18:41:52.144Z,3.15
2022-08-29T18:44:18.617Z,3.88
2022-08-29T18:46:47.776Z,3.70
2022-08-29T18:49:14.928Z,3.33
2022-08-29T18:51:41.509Z,3.03
2022-08-29T18:54:09.556Z,2.78
2022-08-29T18:56:37.000Z,2.60
2022-08-29T18:59:04.035Z,3.17
2022-08-29T19:01:33.214Z,2.95
2022-08-29T19:04:02.279Z,3.05
2022-08-29T19:06:29.285Z,3.10
2022-08-29T19:08:56.512Z,3.65
2022-08-29T19:11:23.346Z,2.83
2022-08-29T19:13:52.624Z,3.50
2022-08-29T19:16:20.751Z,2.55
2022-08-29T19:18:47.394Z,2.97
2022-08-29T19:21:14.364Z,2.90
2022-08-29T19:23:52.863Z,2.75
2022-08-29T19:26:32.193Z,2.53
2022-08-29T19:29:01.681Z,2.90
2022-08-29T19:31:28.914Z,2.53
2022-08-29T19:33:55.587Z,2.80
2022-08-29T19:36:23.459Z,2.90
2022-08-29T19:38:50.378Z,2.50
2022-08-29T19:41:17.431Z,2.88
2022-08-29T19:43:44.208Z,2.58
2022-08-29T19:46:16.728Z,2.78
2022-08-29T19:48:45.198Z,2.58
2022-08-29T19:51:16.775Z,2.80
2022-08-29T19:53:43.808Z,2.13
2022-08-29T19:56:11.471Z,2.38
2022-08-29T19:58:38.147Z,2.28
2022-08-29T20:01:06.989Z,2.40
2022-08-29T20:03:34.786Z,1.95
2022-08-29T20:06:06.145Z,2.55
2022-08-29T20:08:45.583Z,2.40
2022-08-29T20:11:21.067Z,3.03
2022-08-29T20:13:51.922Z,2.50
2022-08-29T20:16:22.894Z,2.67
2022-08-29T20:18:50.401Z,2.70
2022-08-29T20:21:17.110Z,2.53
2022-08-29T20:23:49.415Z,2.55
2022-08-29T20:26:16.723Z,2.40
2022-08-29T20:28:43.314Z,2.50
2022-08-29T20:31:09.875Z,2.60
2022-08-29T20:33:38.717Z,2.30
2022-08-29T20:36:25.871Z,2.85
2022-08-29T20:38:52.367Z,2.40
2022-08-29T20:41:21.238Z,2.10
2022-08-29T20:43:48.024Z,2.75
2022-08-29T20:46:14.620Z,2.30
2022-08-29T20:48:41.193Z,2.15
2022-08-29T20:51:09.716Z,2.10
2022-08-29T20:53:38.568Z,2.35
2022-08-29T20:56:05.658Z,2.35
2022-08-29T20:58:32.575Z,1.98
2022-08-29T21:01:00.251Z,2.17
2022-08-29T21:03:45.423Z,2.10
2022-08-29T21:06:12.312Z,2.33
2022-08-29T21:08:41.182Z,2.15
2022-08-29T21:11:08.118Z,1.92
2022-08-29T21:13:34.642Z,2.30
2022-08-29T21:16:01.953Z,2.30
2022-08-29T21:18:28.473Z,1.98
2022-08-29T21:20:55.302Z,1.90
2022-08-29T21:23:23.462Z,1.90
2022-08-29T21:28:16.205Z,1.73
2022-08-29T21:30:45.460Z,2.10
2022-08-29T21:33:12.179Z,1.75
2022-08-29T21:35:40.435Z,2.10
2022-08-29T21:40:33.914Z,2.10
2022-08-29T21:43:00.503Z,1.95
2022-08-29T21:45:27.248Z,2.03
